Time;durP1;ratioP1;P1;durP2;ratioP2;P2;SDS_P1;SDS_P2;PMS_P1;PMS_P2;Temp;Humidity;BMP_temperature;BMP_pressure;BME280_temperature;BME280_humidity;BME280_pressure;Samples;Min_cycle;Max_cycle;Signal;HPM_P1;HPM_P2
2022/05/06 00:01:03;;;;;;;12.73;6.87;;;11.60;1.00;;;;;;5127666;27;20449;-87
2022/05/06 00:04:02;;;;;;;9.50;6.33;;;11.50;1.00;;;;;;5123428;27;20425;-86
2022/05/06 00:12:32;;;;;;;11.20;6.83;;;11.40;1.00;;;;;;5085387;27;20477;-84
2022/05/06 00:22:13;;;;;;;13.20;7.73;;;11.20;1.00;;;;;;5122389;27;21000;-85
2022/05/06 00:24:44;;;;;;;9.53;6.70;;;11.20;1.00;;;;;;5112849;27;20480;-84
2022/05/06 00:27:13;;;;;;;9.50;7.03;;;11.20;1.00;;;;;;5125040;27;20417;-85
2022/05/06 00:29:42;;;;;;;11.53;7.40;;;11.10;1.00;;;;;;5126544;27;20437;-85
2022/05/06 00:32:11;;;;;;;12.07;7.10;;;11.10;1.00;;;;;;5129255;27;20441;-86
2022/05/06 00:34:42;;;;;;;12.17;7.40;;;11.00;1.00;;;;;;5127778;27;20434;-86
2022/05/06 00:37:43;;;;;;;13.40;8.37;;;11.10;1.00;;;;;;5119577;27;20439;-85
2022/05/06 00:40:42;;;;;;;10.90;8.63;;;11.10;1.00;;;;;;5122045;27;20413;-84
2022/05/06 00:43:22;;;;;;;11.20;8.00;;;11.10;1.00;;;;;;5122070;27;20409;-85
2022/05/06 00:46:11;;;;;;;11.37;9.10;;;11.00;1.00;;;;;;5124421;27;20476;-84
2022/05/06 00:54:53;;;;;;;12.37;8.17;;;10.80;1.00;;;;;;5129576;27;20548;-86
2022/05/06 00:57:46;;;;;;;13.37;8.20;;;10.70;1.00;;;;;;5125644;27;20455;-86
2022/05/06 01:00:21;;;;;;;11.67;8.20;;;10.60;1.00;;;;;;5117231;27;20464;-85
2022/05/06 01:02:53;;;;;;;11.77;9.40;;;10.60;1.00;;;;;;6074670;22;21285;-81
2022/05/06 01:05:24;;;;;;;12.63;8.27;;;10.60;1.00;;;;;;5061918;27;20421;-78
2022/05/06 01:07:55;;;;;;;12.47;8.73;;;10.60;1.00;;;;;;5083141;28;20451;-78
2022/05/06 01:10:23;;;;;;;11.00;8.63;;;10.60;1.00;;;;;;5093951;27;20475;-77
2022/05/06 01:12:53;;;;;;;12.60;9.37;;;10.60;1.00;;;;;;5074598;28;20438;-78
2022/05/06 01:15:23;;;;;;;14.10;8.37;;;10.60;1.00;;;;;;5088041;27;20446;-79
2022/05/06 01:17:58;;;;;;;11.00;8.93;;;10.60;1.00;;;;;;5089137;27;20477;-79
2022/05/06 01:20:41;;;;;;;13.50;8.03;;;10.50;1.00;;;;;;5099675;27;20422;-77
2022/05/06 01:23:13;;;;;;;11.27;8.40;;;10.50;1.00;;;;;;5098938;27;20456;-75
2022/05/06 01:25:50;;;;;;;16.10;8.53;;;10.40;1.00;;;;;;5095753;28;20407;-78
2022/05/06 01:28:24;;;;;;;12.93;9.87;;;10.40;1.00;;;;;;5098396;27;20442;-78
2022/05/06 01:30:59;;;;;;;13.37;8.60;;;10.40;1.00;;;;;;5097637;27;20415;-79
2022/05/06 01:33:42;;;;;;;14.10;9.37;;;10.40;1.00;;;;;;5098697;27;20527;-76
2022/05/06 01:36:14;;;;;;;12.63;9.30;;;10.30;1.00;;;;;;5085559;27;20418;-77
2022/05/06 01:38:51;;;;;;;14.73;9.37;;;10.30;1.00;;;;;;5095406;27;20429;-77
2022/05/06 01:41:22;;;;;;;19.03;9.93;;;10.30;1.00;;;;;;5089322;27;20445;-77
2022/05/06 01:43:54;;;;;;;11.23;8.93;;;10.30;1.00;;;;;;5087182;27;20629;-75
2022/05/06 01:46:31;;;;;;;12.97;9.93;;;10.20;1.00;;;;;;5091626;28;20414;-77
2022/05/06 01:49:08;;;;;;;13.40;9.50;;;10.20;1.00;;;;;;5092696;27;21474;-78
2022/05/06 01:51:43;;;;;;;13.10;10.53;;;10.20;1.00;;;;;;5095670;27;20436;-75
2022/05/06 01:54:16;;;;;;;12.40;9.73;;;10.20;1.00;;;;;;5095037;28;20414;-77
2022/05/06 01:56:52;;;;;;;14.10;11.33;;;10.20;1.00;;;;;;5096272;28;20899;-77
2022/05/06 01:59:22;;;;;;;12.20;10.23;;;10.20;1.00;;;;;;5101800;27;20468;-79
2022/05/06 02:01:55;;;;;;;16.30;10.47;;;10.10;1.00;;;;;;5094392;27;20434;-76
2022/05/06 02:07:13;;;;;;;21.17;11.37;;;10.10;1.00;;;;;;5097348;27;20414;-77
2022/05/06 02:09:44;;;;;;;16.63;11.03;;;10.10;1.00;;;;;;5094901;27;20490;-78
2022/05/06 02:12:12;;;;;;;14.80;10.70;;;10.10;1.00;;;;;;5097096;27;20425;-78
2022/05/06 02:14:42;;;;;;;13.10;10.33;;;10.10;1.00;;;;;;5071372;28;20433;-78
2022/05/06 02:17:12;;;;;;;12.57;10.50;;;10.10;1.00;;;;;;5095791;28;20445;-79
2022/05/06 02:19:42;;;;;;;13.53;10.77;;;10.10;1.00;;;;;;5089742;28;20418;-77
2022/05/06 02:22:11;;;;;;;12.87;10.20;;;10.10;1.00;;;;;;5075160;28;20445;-78
2022/05/06 02:24:43;;;;;;;15.10;10.90;;;10.10;1.00;;;;;;5069754;28;20461;-78
2022/05/06 02:27:12;;;;;;;14.37;10.97;;;10.10;1.00;;;;;;5091466;28;20430;-78
2022/05/06 02:33:12;;;;;;;15.43;10.50;;;10.10;1.00;;;;;;5096876;28;20438;-78
2022/05/06 02:35:23;;;;;;;16.27;10.77;;;10.10;1.00;;;;;;5070605;28;20455;-78
2022/05/06 02:37:55;;;;;;;14.87;10.93;;;10.10;1.00;;;;;;5069748;28;20439;-77
2022/05/06 02:40:42;;;;;;;14.27;10.87;;;10.10;1.00;;;;;;5073925;28;20449;-78
2022/05/06 02:43:11;;;;;;;16.63;10.23;;;10.10;1.00;;;;;;5067843;28;20492;-77
2022/05/06 02:45:42;;;;;;;13.90;11.63;;;10.10;1.00;;;;;;5089316;27;20464;-78
2022/05/06 02:48:12;;;;;;;13.00;10.33;;;10.10;1.00;;;;;;5094257;27;20497;-79
2022/05/06 02:50:42;;;;;;;13.17;10.07;;;10.10;1.00;;;;;;5098835;27;20438;-78
2022/05/06 02:53:12;;;;;;;15.30;10.70;;;10.10;1.00;;;;;;5096553;27;20437;-76
2022/05/06 02:55:43;;;;;;;15.50;11.10;;;10.00;1.00;;;;;;5086904;28;20422;-78
2022/05/06 02:58:13;;;;;;;17.40;12.10;;;9.90;1.00;;;;;;5088126;28;20418;-78
2022/05/06 03:00:43;;;;;;;19.60;10.43;;;9.90;1.00;;;;;;5097677;28;20452;-78
2022/05/06 03:03:12;;;;;;;18.60;11.40;;;9.80;1.00;;;;;;5089402;28;20440;-78
2022/05/06 03:05:44;;;;;;;17.30;11.50;;;9.80;1.00;;;;;;5094387;27;20480;-78
2022/05/06 03:08:14;;;;;;;18.47;11.80;;;9.70;1.00;;;;;;5095854;27;20441;-79
2022/05/06 03:10:43;;;;;;;15.70;11.10;;;9.60;1.00;;;;;;5071168;28;20445;-77
2022/05/06 03:13:12;;;;;;;13.93;11.83;;;9.60;1.00;;;;;;5079032;28;20436;-78
2022/05/06 03:15:43;;;;;;;17.20;11.47;;;9.60;1.00;;;;;;5068648;28;20680;-76
2022/05/06 03:18:12;;;;;;;17.67;11.90;;;9.50;1.00;;;;;;5066057;28;20434;-78
2022/05/06 03:20:44;;;;;;;15.50;10.83;;;9.50;1.00;;;;;;5058869;28;20439;-77
2022/05/06 03:23:14;;;;;;;18.50;11.60;;;9.50;1.00;;;;;;5060454;28;20466;-78
2022/05/06 03:25:43;;;;;;;22.20;16.10;;;9.50;1.00;;;;;;5084752;28;20689;-78
2022/05/06 03:28:12;;;;;;;16.07;11.40;;;9.40;1.00;;;;;;5082879;27;20469;-80
2022/05/06 03:30:44;;;;;;;14.70;11.20;;;9.40;1.00;;;;;;5092205;27;20497;-76
2022/05/06 03:33:14;;;;;;;19.57;11.60;;;9.50;1.00;;;;;;5079324;28;20480;-77
2022/05/06 03:35:42;;;;;;;14.77;11.60;;;9.50;1.00;;;;;;5093051;28;20426;-78
2022/05/06 03:38:13;;;;;;;16.93;12.90;;;9.50;1.00;;;;;;5090054;28;20462;-79
2022/05/06 03:40:44;;;;;;;20.07;13.40;;;9.60;1.00;;;;;;5095194;27;20521;-77
2022/05/06 03:43:12;;;;;;;16.93;11.70;;;9.60;1.00;;;;;;5086139;27;20466;-77
2022/05/06 03:45:43;;;;;;;19.03;12.10;;;9.70;1.00;;;;;;5068629;28;20457;-77
2022/05/06 03:48:12;;;;;;;18.13;12.30;;;9.70;1.00;;;;;;5081527;28;20452;-77
2022/05/06 03:53:32;;;;;;;22.77;13.40;;;9.60;1.00;;;;;;5081587;27;20482;-78
2022/05/06 03:56:03;;;;;;;14.17;11.17;;;9.60;1.00;;;;;;5076708;28;20422;-80
2022/05/06 03:58:33;;;;;;;19.17;12.60;;;9.60;1.00;;;;;;5076541;28;20421;-77
2022/05/06 04:01:04;;;;;;;26.20;13.43;;;9.60;1.00;;;;;;5085717;28;20464;-78
2022/05/06 04:03:32;;;;;;;25.03;13.03;;;9.60;1.00;;;;;;5084395;27;20437;-78
2022/05/06 04:06:03;;;;;;;19.73;13.40;;;9.60;1.00;;;;;;5089088;27;20436;-77
2022/05/06 04:08:35;;;;;;;16.87;12.17;;;9.60;1.00;;;;;;5082756;27;20419;-77
2022/05/06 04:11:11;;;;;;;19.40;12.80;;;9.70;1.00;;;;;;5090812;27;20477;-79
2022/05/06 04:13:52;;;;;;;22.30;13.40;;;9.70;1.00;;;;;;5085491;28;20438;-78
2022/05/06 04:16:24;;;;;;;17.20;13.20;;;9.60;1.00;;;;;;5071773;28;20467;-77
2022/05/06 04:18:52;;;;;;;17.07;12.50;;;9.70;1.00;;;;;;5078123;28;20483;-78
2022/05/06 04:24:13;;;;;;;16.00;12.33;;;9.70;1.00;;;;;;5081057;28;20545;-79
2022/05/06 04:26:47;;;;;;;20.87;16.03;;;9.70;1.00;;;;;;5092122;27;20429;-76
2022/05/06 04:29:15;;;;;;;18.03;13.10;;;9.80;1.00;;;;;;5093960;27;20553;-78
2022/05/06 04:31:42;;;;;;;18.53;13.20;;;9.80;1.00;;;;;;5096463;28;20568;-78
2022/05/06 04:34:14;;;;;;;18.50;13.07;;;9.80;1.00;;;;;;5091911;28;20469;-77
2022/05/06 04:36:44;;;;;;;16.00;12.73;;;9.90;1.00;;;;;;5078953;28;21285;-78
2022/05/06 04:39:12;;;;;;;17.63;12.77;;;9.90;1.00;;;;;;5076183;28;20437;-78
2022/05/06 04:41:42;;;;;;;21.33;13.70;;;9.90;1.00;;;;;;5091464;27;20440;-76
2022/05/06 04:44:13;;;;;;;18.90;13.27;;;10.00;1.00;;;;;;5089693;28;20450;-75
2022/05/06 04:46:46;;;;;;;18.70;14.27;;;10.00;1.00;;;;;;5070152;28;20426;-77
2022/05/06 04:49:15;;;;;;;21.23;14.10;;;10.20;1.00;;;;;;5068260;28;20502;-76
2022/05/06 04:51:44;;;;;;;19.03;13.57;;;10.30;1.00;;;;;;5091235;27;20466;-77
2022/05/06 04:54:13;;;;;;;16.37;13.73;;;10.40;1.00;;;;;;5076007;28;20645;-77
2022/05/06 04:56:41;;;;;;;15.70;13.63;;;10.50;1.00;;;;;;5069228;28;20536;-76
2022/05/06 04:59:13;;;;;;;17.50;12.70;;;10.60;1.00;;;;;;5072574;28;20427;-76
2022/05/06 05:01:42;;;;;;;16.07;12.93;;;10.70;1.00;;;;;;5072685;28;20460;-78
2022/05/06 05:04:12;;;;;;;20.23;14.03;;;10.80;1.00;;;;;;5068920;28;20423;-77
2022/05/06 05:06:42;;;;;;;16.90;13.47;;;10.90;1.00;;;;;;5069252;28;20418;-77
2022/05/06 05:09:12;;;;;;;22.20;13.90;;;11.00;1.00;;;;;;5071835;28;21271;-76
2022/05/06 05:11:43;;;;;;;14.40;12.63;;;11.10;1.00;;;;;;5085168;28;20439;-77
2022/05/06 05:14:14;;;;;;;23.50;17.27;;;11.20;1.00;;;;;;5093875;27;20431;-76
2022/05/06 05:16:42;;;;;;;19.50;14.33;;;11.30;1.00;;;;;;5091311;27;20452;-78
2022/05/06 05:19:12;;;;;;;21.10;14.17;;;11.40;1.00;;;;;;5085775;27;20474;-76
2022/05/06 05:21:43;;;;;;;17.90;13.13;;;11.50;1.00;;;;;;5082917;28;20434;-77
2022/05/06 05:24:12;;;;;;;17.83;14.50;;;11.70;1.00;;;;;;5099210;28;20449;-77
2022/05/06 05:26:45;;;;;;;18.53;13.37;;;11.80;1.00;;;;;;5068320;28;20431;-77
2022/05/06 05:29:14;;;;;;;23.83;14.50;;;12.00;1.00;;;;;;5083450;28;20411;-80
2022/05/06 05:31:43;;;;;;;24.10;15.07;;;12.10;1.00;;;;;;5097401;27;20617;-76
2022/05/06 05:34:14;;;;;;;20.47;12.83;;;12.30;1.00;;;;;;5090456;28;20495;-79
2022/05/06 05:36:43;;;;;;;21.23;13.80;;;12.40;1.00;;;;;;5091328;27;20556;-80
2022/05/06 05:39:12;;;;;;;14.60;12.37;;;12.60;1.00;;;;;;5097203;28;20427;-78
2022/05/06 05:41:43;;;;;;;18.30;14.10;;;12.70;1.00;;;;;;5084403;28;20454;-77
2022/05/06 05:50:13;;;;;;;18.07;12.10;;;13.20;1.00;;;;;;5060578;28;20469;-81
2022/05/06 05:52:45;;;;;;;15.00;12.30;;;13.40;1.00;;;;;;5077731;27;20459;-80
2022/05/06 05:55:13;;;;;;;18.47;13.07;;;13.60;1.00;;;;;;5072896;27;20424;-79
2022/05/06 05:57:46;;;;;;;19.13;12.53;;;13.70;1.00;;;;;;5072026;27;20449;-78
2022/05/06 06:00:22;;;;;;;20.50;12.90;;;13.80;1.00;;;;;;5062300;28;20472;-76
2022/05/06 06:02:55;;;;;;;17.90;11.80;;;13.90;1.00;;;;;;5067675;28;20446;-80
2022/05/06 06:05:23;;;;;;;16.47;11.87;;;14.10;1.00;;;;;;5067499;28;20411;-79
2022/05/06 06:07:52;;;;;;;15.73;12.23;;;14.20;1.00;;;;;;5066489;28;20423;-80
2022/05/06 06:10:22;;;;;;;17.20;11.07;;;14.30;1.00;;;;;;5070918;28;20449;-79
2022/05/06 06:12:53;;;;;;;15.40;10.60;;;14.40;1.00;;;;;;5074899;27;20446;-80
2022/05/06 06:15:24;;;;;;;18.40;10.67;;;14.50;1.00;;;;;;5075057;27;20461;-81
2022/05/06 06:18:01;;;;;;;14.00;9.93;;;14.60;1.00;;;;;;5078023;27;20497;-80
2022/05/06 06:20:32;;;;;;;15.30;9.33;;;14.70;1.00;;;;;;5073462;28;20457;-78
2022/05/06 06:23:02;;;;;;;14.50;9.33;;;14.70;1.00;;;;;;5070136;28;20462;-81
2022/05/06 06:25:33;;;;;;;16.70;9.80;;;14.70;1.00;;;;;;5075535;27;20454;-79
2022/05/06 06:28:13;;;;;;;14.80;9.20;;;14.80;1.00;;;;;;5074270;27;20462;-78
2022/05/06 06:30:44;;;;;;;16.47;8.90;;;14.80;1.00;;;;;;5065741;28;20414;-78
2022/05/06 06:33:13;;;;;;;14.00;8.87;;;15.00;1.00;;;;;;5079624;28;20443;-78
2022/05/06 06:35:51;;;;;;;13.50;7.87;;;15.00;1.00;;;;;;5080025;28;20436;-79
2022/05/06 06:38:24;;;;;;;15.63;9.07;;;15.10;1.00;;;;;;5063401;28;20424;-82
2022/05/06 06:40:53;;;;;;;12.40;9.37;;;15.20;1.00;;;;;;5051761;28;20424;-77
2022/05/06 06:43:23;;;;;;;14.80;9.20;;;15.20;1.00;;;;;;5043311;28;20435;-81
2022/05/06 06:45:56;;;;;;;13.27;7.77;;;15.30;1.00;;;;;;5062952;28;20452;-82
2022/05/06 06:48:32;;;;;;;11.87;8.07;;;15.40;1.00;;;;;;5059688;28;20417;-77
2022/05/06 06:51:03;;;;;;;19.83;9.73;;;15.50;1.00;;;;;;5060769;28;20438;-81
2022/05/06 06:53:33;;;;;;;12.63;7.97;;;15.50;1.00;;;;;;5056831;28;20462;-77
2022/05/06 06:56:05;;;;;;;12.77;8.03;;;15.60;1.00;;;;;;5078803;27;20446;-82
2022/05/06 06:58:35;;;;;;;11.60;7.50;;;15.70;1.00;;;;;;5073221;28;20457;-82
2022/05/06 07:01:05;;;;;;;12.83;7.97;;;15.80;1.00;;;;;;5074086;28;20472;-81
2022/05/06 07:03:33;;;;;;;14.90;8.57;;;15.90;1.00;;;;;;5073283;28;20429;-81
2022/05/06 07:11:56;;;;;;;15.33;9.13;;;15.90;1.00;;;;;;5071857;28;21075;-83
2022/05/06 07:14:26;;;;;;;14.43;8.70;;;15.90;1.00;;;;;;5075742;28;20628;-82
2022/05/06 07:17:05;;;;;;;17.20;8.63;;;16.00;1.00;;;;;;5069067;28;20451;-78
2022/05/06 07:19:34;;;;;;;14.17;8.37;;;16.10;1.00;;;;;;5079071;28;20439;-82
2022/05/06 07:22:03;;;;;;;14.60;9.30;;;16.20;1.00;;;;;;5076893;28;20420;-80
2022/05/06 07:24:34;;;;;;;16.87;10.07;;;16.30;1.00;;;;;;5081300;28;20494;-82
2022/05/06 07:27:05;;;;;;;15.57;10.03;;;16.40;1.00;;;;;;5074993;28;20427;-81
2022/05/06 07:29:34;;;;;;;14.73;11.37;;;16.40;1.00;;;;;;5072980;28;20487;-79
2022/05/06 07:32:15;;;;;;;18.33;9.10;;;16.50;1.00;;;;;;5069788;28;20420;-77
2022/05/06 07:34:43;;;;;;;16.17;9.87;;;16.70;1.00;;;;;;5053470;28;20459;-80
2022/05/06 07:37:16;;;;;;;13.70;9.83;;;16.70;1.00;;;;;;5068046;28;20525;-78
2022/05/06 07:39:44;;;;;;;15.50;9.60;;;16.70;1.00;;;;;;5064938;28;20444;-83
2022/05/06 07:42:15;;;;;;;16.80;9.70;;;16.80;1.00;;;;;;5072919;28;20521;-79
2022/05/06 07:44:43;;;;;;;15.97;9.53;;;16.70;1.00;;;;;;5076481;28;20430;-80
2022/05/06 07:47:14;;;;;;;18.27;10.03;;;16.60;1.00;;;;;;5072644;28;20428;-78
2022/05/06 07:49:43;;;;;;;16.60;10.83;;;16.80;1.00;;;;;;5050373;28;20434;-83
2022/05/06 07:52:15;;;;;;;15.10;9.37;;;17.00;1.00;;;;;;5066763;28;20560;-78
2022/05/06 07:54:43;;;;;;;15.87;10.10;;;17.30;1.00;;;;;;5071180;28;20500;-81
2022/05/06 07:57:13;;;;;;;13.70;8.67;;;17.50;1.00;;;;;;5052851;28;20451;-81
2022/05/06 07:59:43;;;;;;;16.80;10.00;;;17.60;1.00;;;;;;5055860;28;20417;-78
2022/05/06 08:05:03;;;;;;;16.70;10.50;;;17.70;1.00;;;;;;5052472;28;20539;-78
2022/05/06 08:07:33;;;;;;;20.93;10.73;;;18.00;1.00;;;;;;5053044;28;20440;-78
2022/05/06 08:10:06;;;;;;;15.17;9.07;;;18.10;1.00;;;;;;5055760;28;20445;-81
2022/05/06 08:12:34;;;;;;;15.20;8.67;;;18.40;1.00;;;;;;5060587;28;20435;-81
2022/05/06 08:15:06;;;;;;;18.53;10.00;;;18.70;1.00;;;;;;5054750;28;21441;-80
2022/05/06 08:17:33;;;;;;;14.40;9.07;;;18.90;1.00;;;;;;5053752;28;20431;-81
2022/05/06 08:20:12;;;;;;;13.90;9.50;;;19.00;1.00;;;;;;5053972;28;20547;-81
2022/05/06 08:22:45;;;;;;;16.00;10.17;;;19.20;1.00;;;;;;5064100;28;20439;-79
2022/05/06 08:25:16;;;;;;;14.83;8.73;;;19.40;1.00;;;;;;5076423;28;20448;-81
2022/05/06 08:27:53;;;;;;;18.10;10.00;;;19.70;1.00;;;;;;5060680;28;20551;-77
2022/05/06 08:30:24;;;;;;;14.87;8.90;;;20.00;1.00;;;;;;5053990;28;20604;-79
2022/05/06 08:32:53;;;;;;;14.00;9.70;;;20.20;1.00;;;;;;5051477;28;20532;-80
2022/05/06 08:35:25;;;;;;;13.83;7.97;;;20.20;1.00;;;;;;5050289;28;20502;-81
2022/05/06 08:37:53;;;;;;;18.33;8.93;;;20.20;1.00;;;;;;5053039;28;20461;-79
2022/05/06 08:40:25;;;;;;;13.70;8.87;;;20.20;1.00;;;;;;5066666;27;20452;-79
2022/05/06 08:42:54;;;;;;;16.17;9.40;;;20.20;1.00;;;;;;5071586;28;20435;-80
2022/05/06 08:51:05;;;;;;;12.00;8.07;;;20.90;1.00;;;;;;5073750;28;20428;-82
2022/05/06 08:53:35;;;;;;;12.00;8.30;;;21.00;1.00;;;;;;5042722;28;20416;-78
2022/05/06 08:56:04;;;;;;;13.13;8.23;;;20.90;1.00;;;;;;5055601;28;20455;-79
2022/05/06 08:58:36;;;;;;;12.90;8.43;;;20.80;1.00;;;;;;5063320;28;20433;-80
2022/05/06 09:01:07;;;;;;;13.20;8.07;;;20.50;1.00;;;;;;5047297;28;20465;-76
2022/05/06 09:03:34;;;;;;;16.57;9.23;;;20.10;1.00;;;;;;5047566;28;20454;-80
2022/05/06 09:06:01;;;;;;;17.97;9.33;;;20.00;1.00;;;;;;5051755;28;20452;-81
2022/05/06 09:08:44;;;;;;;17.50;8.57;;;20.10;1.00;;;;;;5051162;28;20969;-79
2022/05/06 09:11:13;;;;;;;13.17;8.20;;;20.10;1.00;;;;;;5050295;28;20543;-81
2022/05/06 09:13:55;;;;;;;13.83;8.27;;;20.20;1.00;;;;;;5050638;28;20810;-82
2022/05/06 09:16:40;;;;;;;13.10;8.30;;;20.50;1.00;;;;;;5050470;28;20436;-79
2022/05/06 09:19:17;;;;;;;12.20;8.20;;;21.00;1.00;;;;;;5039234;28;20418;-81
2022/05/06 09:22:11;;;;;;;13.93;9.00;;;21.30;1.00;;;;;;5040399;28;20475;-79
2022/05/06 09:24:42;;;;;;;11.60;7.57;;;21.10;1.00;;;;;;5061608;28;20440;-82
2022/05/06 09:27:16;;;;;;;12.90;6.73;;;21.40;1.00;;;;;;5063535;28;20471;-81
2022/05/06 09:29:54;;;;;;;10.33;6.20;;;21.60;1.00;;;;;;5059687;28;20521;-81
2022/05/06 09:32:41;;;;;;;12.10;7.30;;;22.60;1.00;;;;;;5071579;28;20450;-78
2022/05/06 09:35:19;;;;;;;14.23;6.90;;;23.50;1.00;;;;;;5071383;28;20483;-81
2022/05/06 09:37:49;;;;;;;14.37;8.30;;;23.00;1.00;;;;;;5073742;28;20499;-81
2022/05/06 09:40:31;;;;;;;13.70;6.50;;;22.80;1.00;;;;;;5071501;28;20485;-81
2022/05/06 09:42:59;;;;;;;11.00;7.60;;;24.20;1.00;;;;;;5074561;28;21149;-80
2022/05/06 09:45:32;;;;;;;13.50;6.93;;;26.10;1.00;;;;;;5081402;28;20447;-79
2022/05/06 09:48:00;;;;;;;13.50;7.30;;;27.50;1.00;;;;;;5076414;28;20506;-81
2022/05/06 09:50:40;;;;;;;12.07;6.97;;;27.80;1.00;;;;;;5078960;28;21288;-81
2022/05/06 09:53:10;;;;;;;15.87;7.53;;;27.80;1.00;;;;;;5076488;28;20434;-82
2022/05/06 09:55:49;;;;;;;11.03;6.93;;;27.70;1.00;;;;;;5083819;28;20447;-77
2022/05/06 09:58:19;;;;;;;11.00;7.30;;;28.70;1.00;;;;;;5069867;28;20431;-79
2022/05/06 10:00:49;;;;;;;15.17;7.70;;;28.60;1.00;;;;;;5052655;28;20435;-80
2022/05/06 10:03:19;;;;;;;13.60;8.60;;;27.70;1.00;;;;;;5063936;28;20470;-79
2022/05/06 10:05:50;;;;;;;13.27;7.40;;;28.00;1.00;;;;;;5059621;28;20561;-78
2022/05/06 10:08:21;;;;;;;11.87;6.27;;;29.20;1.00;;;;;;5073106;28;20443;-79
2022/05/06 10:10:59;;;;;;;11.13;5.73;;;30.00;1.00;;;;;;5074320;28;20412;-80
2022/05/06 10:13:36;;;;;;;19.40;8.33;;;29.10;1.00;;;;;;5075342;28;20462;-77
2022/05/06 10:16:09;;;;;;;10.10;6.07;;;29.30;1.00;;;;;;5073183;28;20436;-78
2022/05/06 10:18:40;;;;;;;9.60;6.13;;;30.40;1.00;;;;;;5078982;28;20569;-78
2022/05/06 10:21:10;;;;;;;12.37;7.20;;;30.80;1.00;;;;;;5080329;28;20594;-78
2022/05/06 10:23:51;;;;;;;10.50;6.63;;;31.10;1.00;;;;;;5065421;28;20444;-80
2022/05/06 10:26:43;;;;;;;10.50;5.73;;;30.50;1.00;;;;;;5077598;28;20800;-79
2022/05/06 10:32:42;;;;;;;12.13;6.33;;;29.40;1.00;;;;;;5058432;28;20459;-75
2022/05/06 10:35:17;;;;;;;11.10;6.10;;;28.90;1.00;;;;;;5076228;28;20454;-78
2022/05/06 10:37:59;;;;;;;8.40;5.10;;;28.80;1.00;;;;;;5072573;28;20486;-78
2022/05/06 10:40:36;;;;;;;8.60;4.50;;;29.90;1.00;;;;;;5078573;28;20439;-81
2022/05/06 10:43:10;;;;;;;8.57;5.40;;;31.30;1.00;;;;;;5073836;28;20431;-79
2022/05/06 10:45:49;;;;;;;8.57;5.20;;;32.40;1.00;;;;;;5076212;28;20561;-81
2022/05/06 10:48:22;;;;;;;11.80;6.03;;;32.70;1.00;;;;;;5073803;28;20434;-79
2022/05/06 10:50:49;;;;;;;9.30;5.10;;;33.10;1.00;;;;;;5056925;28;20512;-81
2022/05/06 10:53:39;;;;;;;9.27;5.40;;;33.00;1.00;;;;;;5052047;28;20475;-79
2022/05/06 10:56:08;;;;;;;10.50;5.20;;;31.80;1.00;;;;;;5068495;28;20677;-80
2022/05/06 10:58:40;;;;;;;10.40;6.03;;;30.40;1.00;;;;;;5074717;28;20426;-81
2022/05/06 11:01:19;;;;;;;9.73;5.23;;;30.50;1.00;;;;;;5072194;28;20435;-80
2022/05/06 11:03:51;;;;;;;8.73;5.60;;;29.50;1.00;;;;;;5067419;28;20432;-78
2022/05/06 11:06:33;;;;;;;12.37;6.40;;;28.30;1.00;;;;;;5072998;28;20520;-80
2022/05/06 11:09:01;;;;;;;10.47;5.53;;;27.10;1.00;;;;;;5064304;28;20567;-79
2022/05/06 11:11:40;;;;;;;12.57;6.53;;;27.00;1.00;;;;;;5054720;28;20479;-81
2022/05/06 11:14:22;;;;;;;11.23;4.40;;;28.80;1.00;;;;;;5057107;28;20447;-81
2022/05/06 11:16:49;;;;;;;9.33;4.93;;;29.10;1.00;;;;;;5059628;28;20419;-80
2022/05/06 11:19:33;;;;;;;12.00;3.83;;;29.70;1.00;;;;;;5058631;28;20455;-83
2022/05/06 11:22:12;;;;;;;7.10;2.97;;;31.10;1.00;;;;;;5065454;28;20538;-80
2022/05/06 11:24:48;;;;;;;7.47;3.63;;;31.50;1.00;;;;;;5080057;28;20557;-80
2022/05/06 11:27:20;;;;;;;6.27;2.90;;;32.10;1.00;;;;;;5065464;28;20439;-81
2022/05/06 11:29:55;;;;;;;8.60;4.00;;;33.00;1.00;;;;;;5078656;28;20424;-79
2022/05/06 11:32:29;;;;;;;6.90;3.50;;;34.20;1.00;;;;;;5069802;28;20512;-81
2022/05/06 11:35:03;;;;;;;7.53;3.30;;;35.40;1.00;;;;;;5077016;28;20439;-80
2022/05/06 11:37:38;;;;;;;7.40;3.30;;;36.10;1.00;;;;;;5071438;28;20459;-83
2022/05/06 11:43:09;;;;;;;10.07;5.00;;;36.70;1.00;;;;;;5074592;28;20522;-77
2022/05/06 11:48:29;;;;;;;8.53;4.00;;;36.80;1.00;;;;;;5066651;28;20420;-80
2022/05/06 11:51:11;;;;;;;8.47;3.50;;;34.40;1.00;;;;;;5064696;28;20420;-81
2022/05/06 11:53:41;;;;;;;8.97;4.70;;;32.00;1.00;;;;;;5064603;28;20568;-79
2022/05/06 11:56:18;;;;;;;6.77;3.37;;;30.20;1.00;;;;;;5051668;28;20468;-80
2022/05/06 11:58:53;;;;;;;8.77;4.00;;;28.80;1.00;;;;;;5053741;28;20431;-81
2022/05/06 12:01:33;;;;;;;7.17;3.37;;;27.60;1.00;;;;;;5071046;28;20438;-79
2022/05/06 12:04:01;;;;;;;11.47;4.20;;;26.80;1.00;;;;;;5049638;28;20491;-81
2022/05/06 12:06:31;;;;;;;34.13;31.23;;;26.20;1.00;;;;;;5050930;28;20460;-80
2022/05/06 12:09:10;;;;;;;11.10;3.73;;;25.80;1.00;;;;;;5048068;28;20523;-79
2022/05/06 12:11:41;;;;;;;7.87;3.30;;;25.90;1.00;;;;;;5050813;28;21304;-78
2022/05/06 12:14:12;;;;;;;11.43;4.50;;;28.30;1.00;;;;;;5056896;28;20440;-81
2022/05/06 12:16:56;;;;;;;8.73;2.93;;;30.80;1.00;;;;;;5069604;28;20443;-79
2022/05/06 12:19:39;;;;;;;7.67;3.23;;;30.60;1.00;;;;;;5060545;28;20474;-82
2022/05/06 12:22:12;;;;;;;8.80;3.50;;;29.70;1.00;;;;;;5071286;28;25557;-83
2022/05/06 12:24:49;;;;;;;8.90;3.30;;;28.50;1.00;;;;;;5077944;28;20499;-84
2022/05/06 12:27:29;;;;;;;9.20;4.30;;;27.40;1.00;;;;;;5064783;28;20427;-78
2022/05/06 12:30:01;;;;;;;16.33;6.60;;;26.50;1.00;;;;;;5074976;28;20411;-78
2022/05/06 12:32:31;;;;;;;5.97;2.50;;;25.90;1.00;;;;;;5071594;28;20433;-82
2022/05/06 12:35:11;;;;;;;6.70;2.27;;;25.40;1.00;;;;;;5053618;28;20465;-81
2022/05/06 12:37:53;;;;;;;7.83;3.00;;;25.10;1.00;;;;;;5064016;28;20471;-82
2022/05/06 12:40:30;;;;;;;10.73;5.00;;;24.70;1.00;;;;;;5072232;28;20483;-82
2022/05/06 12:43:09;;;;;;;9.37;3.70;;;24.30;1.00;;;;;;5072963;28;20440;-78
2022/05/06 12:45:52;;;;;;;8.40;3.40;;;24.20;1.00;;;;;;5077008;28;20459;-81
2022/05/06 12:51:10;;;;;;;7.77;3.07;;;24.00;1.00;;;;;;5077833;28;20411;-78
2022/05/06 12:53:42;;;;;;;15.67;3.73;;;23.80;1.00;;;;;;5062152;28;20607;-77
2022/05/06 12:56:20;;;;;;;11.80;4.50;;;23.70;1.00;;;;;;5072431;28;20924;-81
2022/05/06 12:58:51;;;;;;;8.07;3.77;;;23.70;1.00;;;;;;5061901;28;20448;-80
2022/05/06 13:01:19;;;;;;;7.60;3.50;;;23.80;1.00;;;;;;5053682;28;20433;-78
2022/05/06 13:03:50;;;;;;;9.63;3.40;;;23.80;1.00;;;;;;5050554;28;20480;-81
2022/05/06 13:06:20;;;;;;;7.60;2.70;;;23.80;1.00;;;;;;5062050;28;20474;-78
2022/05/06 13:08:58;;;;;;;8.23;2.80;;;23.80;1.00;;;;;;5065026;28;20483;-78
2022/05/06 13:11:25;;;;;;;10.60;3.13;;;23.80;1.00;;;;;;5049623;28;20463;-80
2022/05/06 13:13:54;;;;;;;9.13;2.80;;;24.00;1.00;;;;;;5048574;28;20484;-81
2022/05/06 13:16:21;;;;;;;10.30;3.50;;;24.30;1.00;;;;;;5049536;28;20488;-81
2022/05/06 13:18:55;;;;;;;6.70;3.23;;;24.70;1.00;;;;;;5056258;28;20424;-80
2022/05/06 13:21:30;;;;;;;9.00;2.20;;;25.10;1.00;;;;;;5051462;28;20537;-81
2022/05/06 13:23:56;;;;;;;12.30;4.37;;;25.40;1.00;;;;;;5058771;28;20487;-78
2022/05/06 13:26:25;;;;;;;10.87;4.27;;;25.80;1.00;;;;;;5056389;28;21464;-77
2022/05/06 13:28:52;;;;;;;7.53;2.97;;;25.90;1.00;;;;;;5052446;28;21448;-77
2022/05/06 13:31:22;;;;;;;6.97;3.10;;;25.80;1.00;;;;;;5067676;28;20439;-79
2022/05/06 13:33:51;;;;;;;8.60;2.83;;;25.70;1.00;;;;;;5075571;28;20462;-81
2022/05/06 13:36:18;;;;;;;6.50;2.43;;;25.50;1.00;;;;;;5071367;28;20479;-80
2022/05/06 13:38:47;;;;;;;7.93;2.47;;;25.40;1.00;;;;;;5075761;28;20442;-82
2022/05/06 13:41:18;;;;;;;7.70;2.23;;;25.30;1.00;;;;;;5077091;28;20437;-80
2022/05/06 13:43:48;;;;;;;7.30;2.40;;;25.40;1.00;;;;;;5071954;28;20436;-78
2022/05/06 13:46:18;;;;;;;6.70;2.47;;;25.80;1.00;;;;;;5056391;28;20444;-78
2022/05/06 13:48:48;;;;;;;6.80;1.90;;;26.00;1.00;;;;;;5047927;28;20447;-81
2022/05/06 13:51:19;;;;;;;6.20;3.13;;;26.50;1.00;;;;;;5051700;28;20420;-81
2022/05/06 13:53:48;;;;;;;7.20;2.57;;;28.70;1.00;;;;;;5053296;28;20455;-80
2022/05/06 13:59:08;;;;;;;8.93;3.30;;;32.70;1.00;;;;;;5050849;28;20459;-77
2022/05/06 14:01:50;;;;;;;7.10;1.90;;;34.20;1.00;;;;;;5054586;28;20445;-81
2022/05/06 14:04:19;;;;;;;5.97;1.97;;;35.10;1.00;;;;;;5068040;28;20436;-77
2022/05/06 14:07:07;;;;;;;5.93;2.10;;;34.10;1.00;;;;;;5055777;28;20460;-80
2022/05/06 14:09:47;;;;;;;13.67;4.33;;;32.80;1.00;;;;;;5058559;28;21098;-79
2022/05/06 14:12:17;;;;;;;5.30;1.83;;;33.40;1.00;;;;;;5078187;28;20452;-79
2022/05/06 14:14:48;;;;;;;8.80;2.00;;;33.30;1.00;;;;;;5066899;28;20448;-80
2022/05/06 14:17:19;;;;;;;7.07;1.67;;;32.90;1.00;;;;;;5058172;28;21885;-80
2022/05/06 14:19:48;;;;;;;7.57;2.47;;;32.50;1.00;;;;;;5066066;28;20427;-79